AirNav   Air Wisconsin Up To $57,000 Bonus
 
 1639 users online  

5FD4 Flagler County Emergency Operations Center Heliport
Bunnell, Florida, USA

GOING TO BUNNELL?


FAA INFORMATION EFFECTIVE 20 MAY 2021

Location

FAA Identifier: 5FD4
Lat/Long: 29-28-16.1000N 081-14-39.5000W
29-28.268333N 081-14.658333W
29.4711389,-81.2443056
(estimated)
Elevation: 31 ft. / 9 m (estimated)
From city: 1 mile W of BUNNELL, FL
Time zone: UTC -4 (UTC -5 during Standard Time)
Zip code: 32110

Heliport Operations

Heliport use: Private use. Permission required prior to landing
Activation date: 06/2007
Control tower: no
ARTCC: JACKSONVILLE CENTER
FSS: GAINESVILLE FLIGHT SERVICE STATION
Attendance: UNATNDD
Wind indicator: yes
Segmented circle: no

Heliport Communications

WX AWOS-3 at FIN (1.9 nm E): 128.325 (386-437-7334)
WX AWOS-3 at OMN (12 nm SE): 118.475 (386-615-7084)

Nearby radio navigation aids

VOR radial/distance  VOR name  Freq  Var
OMNr326/12.2ORMOND BEACH VORTAC112.6000E
SGJr177/29.5ST AUGUSTINE VOR/DME109.4006W

 
NDB name  Hdg/Dist  Freq  Var  ID
REYNOLDS151/36.733807WRYD .-. -.-- -..

Heliport Services

Runway Information

Helipad H1

Dimensions: 55 x 55 ft. / 17 x 17 m
Surface: concrete
Latitude: 29-28.269333N
Longitude: 081-14.662167W
Elevation: 31.0 ft.
Traffic pattern: leftleft

Heliport Ownership and Management from official FAA records

Ownership: Privately-owned
Owner: FLAGLER COUNTY
1796 E. MOODY BLVD.
BUNNELL, FL 32110
Phone 386-437-0401
Manager: RAY SIEGER
201 AIRPORT RD.
PALM COAST, FL 32164
Phone (386) 313-4220

Additional Remarks

250 FT TWR 1770 FT ESE OF PAD,
FOR CD CTC DAYTONA APCH AT 386-226-3939.

Instrument Procedures

There are no published instrument procedures at 5FD4.

Some nearby airports with instrument procedures:

KFIN - Flagler Executive Airport (2 nm E)
KOMN - Ormond Beach Municipal Airport (12 nm SE)
KDAB - Daytona Beach International Airport (20 nm SE)
KDED - DeLand Municipal Airport-Sidney H Taylor Field (24 nm S)
28J - Palatka Municipal Airport - Lt. Kay Larkin Field (26 nm NW)
 
Loc | Ops | Rwys | IFR | FBO | Links
Com | Nav | Svcs | Stats | Notes
Area around 5FD4 (Flagler County Emergency Operations Center Heliport)
 
Road maps at: MapQuest Bing Google
 
Aerial photo
No photo
 
Sectional chart

 
Airport distance calculator
Flying to Flagler County Emergency Operations Center Heliport? Find the distance to fly.

From to 5FD4

Sunrise and sunset
Times for 16-Jun-2021
 Local
(UTC-4)
 Zulu
(UTC)
Morning civil twilight05:5909:59
Sunrise06:2610:26
Sunset20:2500:25
Evening civil twilight20:5300:53

Current date and time
Zulu (UTC)  16-Jun-2021 18:22:17
Local (UTC-4)  16-Jun-2021 14:22:17
 
METAR
KFIN 
2nm E 
161750Z 25010KT 10SM CLR 30/22 A2997
KOMN 
12nm SE 
161750Z 24010G16KT 7SM SCT020 31/22 A2997
KDAB 
20nm SE 
161753Z 26010KT 10SM SCT038 SCT070 OVC200 31/22 A2996 RMK AO2 SLP143 T03110222 10317 20244 58017
TAF
KDAB 
20nm SE 
161734Z 1618/1718 25012G18KT P6SM VCTS SCT035CB BKN120 TEMPO 1618/1621 3SM TSRA BKN035CB FM162200 24012G18KT P6SM SCT035 BKN100 FM170100 22006KT P6SM FEW025 SCT120 BKN200 FM171400 24010KT P6SM FEW025 SCT150 BKN250 FM171700 15008KT P6SM VCTS SCT035CB SCT110 BKN250
NOTAMs
Click for the latest NOTAMs
NOTAMs are issued by the DoD/FAA and will open in a separate window not controlled by AirNav.

 

 
 

Would you like to see your business listed on this page?

 If your business provides an interesting product or service to pilots, flight crews, aircraft, or users of the Flagler County Emergency Operations Center Heliport, you should consider listing it here.  To start the listing process, click on the button below
 
Add a business
 

Other Pages about Flagler County Emergency Operations Center Heliport

Update a link
 
Copyright © AirNav, LLC. All rights reserved. Privacy Policy  Contact